Portada
METAR-TAF:

METAR-TAF

Aeropuertos :

Rochelle Municipal Airport (Koritz Field)

Rochelle, Illinois, Estados Unidos

latitud: 41-53-35N, longitud: 089-04-42W, altitud: 238 m

Observación

El informe se hizo hace 28 minutos, a las 01:55 UTC
Viento 6 kt del noroeste
Temperatura 18°C
Humedad 100%
Presión 1012 hPa
Visibilidad: 16.1 km
Cielo nuboso a una altura de 800 ft
Cielo cubierto a una altura de 1100 ft

METAR: KRPJ 290155Z AUTO 31006KT 10SM BKN008 OVC011 18/18 A2988 RMK AO2 T01780178

Hora: 21:23 (02:23 UTC)


TAF: falta

Observaciones y pronósticos meteorológicos de más de 4000 aeropuertos (mensajes METAR y TAF).

Los puntos amarillos y rojos representan las estaciones disponibles.

Ponga el ratón en el punto deseado para ver el nombre de la estación.

Haga clic para ver las observaciones y los pronósticos meteorológicos.

Para cambiar el mapa : haga clic en los botones verdes con una cruz de color negro para hacer un zoom, en el botón verde con un guión para alejar o en las flechas verdes para mapas adyacentes.


METAR-TAF: